createdAt,value
2022-08-31T00:00:02.908Z,70
2022-08-31T00:20:04.375Z,70
2022-08-31T00:40:04.400Z,70
2022-08-31T01:00:05.207Z,70
2022-08-31T01:20:03.958Z,70
2022-08-31T01:40:03.933Z,71
2022-08-31T02:00:02.747Z,72
2022-08-31T02:20:02.589Z,73
2022-08-31T02:40:04.748Z,73
2022-08-31T03:00:02.798Z,74
2022-08-31T03:20:04.271Z,74
2022-08-31T03:40:02.982Z,74
2022-08-31T04:00:02.283Z,75
2022-08-31T04:20:03.047Z,75
2022-08-31T04:40:04.186Z,75
2022-08-31T05:00:04.243Z,75
2022-08-31T05:20:04.483Z,75
2022-08-31T05:40:04.278Z,75
2022-08-31T06:00:04.810Z,74
2022-08-31T06:20:03.208Z,74
2022-08-31T06:40:03.000Z,72
2022-08-31T07:00:05.632Z,69
2022-08-31T07:20:04.002Z,65
2022-08-31T07:40:08.313Z,61
2022-08-31T08:00:04.445Z,57
2022-08-31T08:20:04.612Z,54
2022-08-31T08:40:02.932Z,49
2022-08-31T09:00:02.669Z,48
2022-08-31T09:20:04.399Z,45
2022-08-31T09:40:07.697Z,46
2022-08-31T10:00:03.177Z,44
2022-08-31T10:20:04.198Z,41
2022-08-31T10:40:04.532Z,40
2022-08-31T11:00:03.523Z,40
2022-08-31T11:20:02.962Z,38
2022-08-31T11:40:03.101Z,37
2022-08-31T12:00:02.708Z,38
2022-08-31T12:20:02.886Z,38
2022-08-31T12:40:02.267Z,39
2022-08-31T13:00:02.734Z,41
2022-08-31T13:20:03.228Z,40
2022-08-31T13:40:02.761Z,39
2022-08-31T14:00:03.208Z,39
2022-08-31T14:20:02.761Z,41
2022-08-31T14:40:08.172Z,40
2022-08-31T15:00:02.612Z,39
2022-08-31T15:20:03.247Z,40
2022-08-31T15:40:04.083Z,41
2022-08-31T16:00:03.446Z,41
2022-08-31T16:20:04.585Z,41
2022-08-31T16:40:05.061Z,42
2022-08-31T17:00:03.016Z,43
2022-08-31T17:20:05.224Z,45
2022-08-31T17:40:04.104Z,46
2022-08-31T18:00:03.798Z,48
2022-08-31T18:20:04.738Z,50
2022-08-31T18:40:08.430Z,52
2022-08-31T19:00:04.379Z,52
2022-08-31T19:20:04.050Z,53
2022-08-31T19:40:02.594Z,54
2022-08-31T20:00:03.057Z,55
2022-08-31T20:20:02.685Z,56
2022-08-31T20:40:03.054Z,57
2022-08-31T21:00:02.648Z,58
2022-08-31T21:20:02.408Z,59
2022-08-31T21:40:03.075Z,60
2022-08-31T22:00:02.448Z,61
2022-08-31T22:20:03.842Z,61
2022-08-31T22:40:02.182Z,62
2022-08-31T23:00:02.604Z,63
2022-08-31T23:20:03.124Z,63
2022-08-31T23:40:02.964Z,63
